createdAt,value
2018-02-16T00:00:20.695Z,15.40
2018-02-16T00:02:48.163Z,16.23
2018-02-16T00:05:15.610Z,17.90
2018-02-16T00:07:43.069Z,15.90
2018-02-16T00:10:10.555Z,15.67
2018-02-16T00:12:37.991Z,17.77
2018-02-16T00:15:05.444Z,18.53
2018-02-16T00:17:32.899Z,20.63
2018-02-16T00:20:00.343Z,17.17
2018-02-16T00:22:27.783Z,18.23
2018-02-16T00:24:55.240Z,17.53
2018-02-16T00:27:22.704Z,17.33
2018-02-16T00:29:50.173Z,19.80
2018-02-16T00:32:17.715Z,18.43
2018-02-16T00:34:45.171Z,22.80
2018-02-16T00:37:12.632Z,33.27
2018-02-16T00:39:40.110Z,21.60
2018-02-16T00:42:07.568Z,25.03
2018-02-16T00:44:35.019Z,26.20
2018-02-16T00:47:02.495Z,28.27
2018-02-16T00:49:30.228Z,26.60
2018-02-16T00:51:57.689Z,27.97
2018-02-16T00:54:25.137Z,29.13
2018-02-16T00:56:52.581Z,32.30
2018-02-16T00:59:20.051Z,30.00
2018-02-16T01:01:47.497Z,29.60
2018-02-16T01:04:14.964Z,28.93
2018-02-16T01:06:42.395Z,30.33
2018-02-16T01:09:09.851Z,33.00
2018-02-16T01:11:37.309Z,31.20
2018-02-16T01:14:04.746Z,38.50
2018-02-16T01:16:32.196Z,35.60
2018-02-16T01:18:59.640Z,31.87
2018-02-16T01:21:27.091Z,32.43
2018-02-16T01:23:54.560Z,33.33
2018-02-16T01:26:22.004Z,37.47
2018-02-16T01:28:49.463Z,36.37
2018-02-16T01:31:16.913Z,36.00
2018-02-16T01:33:44.372Z,37.73
2018-02-16T01:36:11.876Z,36.23
2018-02-16T01:38:39.330Z,39.50
2018-02-16T01:41:06.785Z,38.63
2018-02-16T01:43:35.006Z,46.13
2018-02-16T01:46:02.448Z,43.47
2018-02-16T01:48:29.911Z,44.07
2018-02-16T01:50:57.376Z,46.77
2018-02-16T01:53:25.580Z,50.50
2018-02-16T01:55:53.019Z,49.30
2018-02-16T01:58:20.543Z,57.07
2018-02-16T02:00:47.987Z,48.10
2018-02-16T02:03:15.474Z,53.30
2018-02-16T02:05:42.899Z,54.60
2018-02-16T02:08:10.332Z,50.53
2018-02-16T02:10:37.824Z,47.50
2018-02-16T02:13:05.257Z,50.33
2018-02-16T02:15:32.707Z,53.03
2018-02-16T02:18:00.190Z,57.10
2018-02-16T02:20:27.965Z,62.40
2018-02-16T02:22:55.438Z,52.87
2018-02-16T02:25:22.863Z,66.60
2018-02-16T02:27:51.064Z,62.70
2018-02-16T02:30:18.530Z,64.90
2018-02-16T02:32:45.985Z,60.20
2018-02-16T02:35:13.472Z,48.43
2018-02-16T02:37:41.183Z,52.40
2018-02-16T02:40:08.651Z,52.23
2018-02-16T02:42:36.100Z,58.77
2018-02-16T02:45:03.576Z,59.97
2018-02-16T02:47:31.029Z,52.50
2018-02-16T02:49:58.504Z,54.77
2018-02-16T02:52:26.695Z,64.43
2018-02-16T02:54:54.156Z,62.07
2018-02-16T02:57:21.613Z,64.97
2018-02-16T02:59:49.050Z,70.90
2018-02-16T03:02:16.509Z,56.77
2018-02-16T03:04:44.032Z,60.17
2018-02-16T03:07:11.476Z,63.83
2018-02-16T03:09:38.903Z,65.33
2018-02-16T03:12:06.333Z,72.27
2018-02-16T03:14:33.791Z,60.60
2018-02-16T03:17:01.241Z,72.43
2018-02-16T03:19:28.683Z,55.80
2018-02-16T03:21:56.122Z,72.80
2018-02-16T03:24:23.559Z,64.93
2018-02-16T03:26:51.771Z,70.13
2018-02-16T03:29:19.211Z,54.83
2018-02-16T03:31:46.666Z,68.57
2018-02-16T03:34:14.104Z,70.90
2018-02-16T03:36:41.540Z,59.53
2018-02-16T03:39:08.975Z,61.47
2018-02-16T03:41:36.432Z,60.40
2018-02-16T03:44:03.878Z,55.03
2018-02-16T03:46:31.319Z,64.67
2018-02-16T03:48:58.894Z,62.20
2018-02-16T03:51:26.315Z,67.20
2018-02-16T03:53:54.538Z,64.33
2018-02-16T03:56:21.991Z,62.43
2018-02-16T03:58:49.445Z,75.50
2018-02-16T04:01:16.908Z,63.00
2018-02-16T04:03:44.343Z,66.53
2018-02-16T04:06:11.785Z,58.63
2018-02-16T04:08:39.240Z,59.77
2018-02-16T04:11:06.682Z,64.13
2018-02-16T04:13:34.142Z,58.97
2018-02-16T04:16:01.571Z,60.73
2018-02-16T04:18:29.024Z,63.57
2018-02-16T04:20:56.463Z,77.10
2018-02-16T04:23:23.916Z,74.83
2018-02-16T04:25:51.351Z,66.53
2018-02-16T04:28:18.810Z,73.53
2018-02-16T04:30:46.263Z,76.03
2018-02-16T04:33:13.708Z,74.37
2018-02-16T04:35:41.158Z,80.27
2018-02-16T04:38:08.609Z,87.47
2018-02-16T04:40:36.807Z,78.83
2018-02-16T04:43:04.256Z,102.33
2018-02-16T04:45:31.708Z,83.23
2018-02-16T04:47:59.142Z,76.17
2018-02-16T04:50:26.597Z,79.80
2018-02-16T04:52:54.027Z,95.47
2018-02-16T04:55:21.487Z,85.87
2018-02-16T04:57:48.929Z,81.77
2018-02-16T05:00:16.381Z,90.13
2018-02-16T05:02:43.827Z,86.63
2018-02-16T05:05:11.259Z,83.67
2018-02-16T05:07:38.707Z,90.90
2018-02-16T05:10:06.943Z,101.07
2018-02-16T05:12:34.409Z,111.47
2018-02-16T05:15:01.899Z,101.37
2018-02-16T05:17:30.122Z,91.30
2018-02-16T05:19:57.538Z,94.37
2018-02-16T05:22:25.783Z,75.83
2018-02-16T05:24:53.244Z,83.07
2018-02-16T05:27:20.701Z,102.73
2018-02-16T05:29:48.156Z,79.20
2018-02-16T05:32:15.614Z,77.67
2018-02-16T05:34:43.047Z,89.30
2018-02-16T05:37:10.511Z,90.47
2018-02-16T05:39:39.771Z,92.17
2018-02-16T05:42:07.241Z,100.77
2018-02-16T05:44:34.718Z,101.30
2018-02-16T05:47:02.174Z,88.47
2018-02-16T05:49:29.635Z,102.83
2018-02-16T05:51:57.089Z,80.87
2018-02-16T05:54:24.551Z,76.83
2018-02-16T05:56:52.037Z,83.50
2018-02-16T05:59:19.503Z,65.13
2018-02-16T06:01:47.073Z,71.67
2018-02-16T06:04:14.504Z,66.67
2018-02-16T06:06:41.965Z,64.20
2018-02-16T06:09:09.421Z,69.83
2018-02-16T06:11:36.867Z,63.57
2018-02-16T06:14:04.331Z,75.30
2018-02-16T06:16:31.783Z,68.50
2018-02-16T06:18:59.241Z,65.67
2018-02-16T06:21:26.695Z,61.73
2018-02-16T06:23:54.200Z,76.17
2018-02-16T06:26:21.655Z,60.50
2018-02-16T06:28:49.857Z,61.23
2018-02-16T06:31:17.291Z,68.50
2018-02-16T06:33:44.723Z,58.17
2018-02-16T06:36:12.167Z,73.10
2018-02-16T06:38:39.618Z,58.37
2018-02-16T06:41:07.060Z,55.17
2018-02-16T06:43:34.503Z,51.93
2018-02-16T06:46:01.983Z,41.63
2018-02-16T06:48:29.434Z,49.43
2018-02-16T06:50:56.887Z,41.70
2018-02-16T06:53:24.334Z,34.90
2018-02-16T06:55:51.792Z,36.93
2018-02-16T06:58:19.249Z,38.20
2018-02-16T07:00:46.705Z,37.63
2018-02-16T07:03:14.165Z,40.80
2018-02-16T07:05:41.605Z,48.53
2018-02-16T07:08:09.087Z,37.90
2018-02-16T07:10:36.547Z,35.13
2018-02-16T07:13:04.770Z,29.23
2018-02-16T07:15:32.969Z,39.53
2018-02-16T07:18:00.450Z,36.17
2018-02-16T07:20:27.875Z,38.53
2018-02-16T07:22:55.393Z,33.40
2018-02-16T07:25:22.849Z,33.70
2018-02-16T07:27:50.311Z,33.43
2018-02-16T07:30:17.748Z,32.60
2018-02-16T07:32:45.191Z,29.20
2018-02-16T07:35:12.644Z,34.83
2018-02-16T07:37:40.106Z,34.90
2018-02-16T07:40:07.565Z,37.53
2018-02-16T07:42:35.018Z,25.43
2018-02-16T07:45:02.499Z,33.50
2018-02-16T07:47:29.976Z,27.60
2018-02-16T07:49:57.435Z,27.20
2018-02-16T07:52:25.811Z,21.50
2018-02-16T07:54:53.248Z,26.83
2018-02-16T07:57:20.713Z,13.73
2018-02-16T07:59:48.185Z,18.43
2018-02-16T08:02:15.643Z,17.57
2018-02-16T08:04:43.078Z,16.97
2018-02-16T08:07:10.521Z,17.80
2018-02-16T08:09:37.981Z,20.90
2018-02-16T08:12:05.407Z,19.17
2018-02-16T08:14:32.883Z,17.70
2018-02-16T08:17:00.544Z,19.90
2018-02-16T08:19:27.978Z,16.93
2018-02-16T08:21:55.408Z,14.87
2018-02-16T08:24:23.635Z,14.03
2018-02-16T08:26:51.110Z,22.57
2018-02-16T08:29:18.552Z,19.80
2018-02-16T08:31:46.020Z,18.33
2018-02-16T08:34:13.496Z,24.77
2018-02-16T08:36:40.960Z,27.30
2018-02-16T08:39:09.120Z,11.57
2018-02-16T08:41:36.572Z,16.43
2018-02-16T08:44:04.012Z,10.70
2018-02-16T08:46:31.447Z,10.67
2018-02-16T08:48:58.903Z,14.00
2018-02-16T08:51:26.372Z,13.13
2018-02-16T08:53:53.822Z,11.53
2018-02-16T08:56:21.316Z,10.23
2018-02-16T08:58:48.970Z,11.60
2018-02-16T09:01:17.194Z,9.40
2018-02-16T09:03:45.404Z,11.67
2018-02-16T09:06:12.890Z,7.57
2018-02-16T09:08:40.344Z,17.37
2018-02-16T09:11:07.786Z,20.30
2018-02-16T09:13:35.253Z,10.50
2018-02-16T09:16:02.711Z,11.60
2018-02-16T09:18:30.159Z,11.23
2018-02-16T09:20:57.622Z,12.53
2018-02-16T09:23:25.069Z,9.67
2018-02-16T09:25:52.562Z,10.47
2018-02-16T09:28:19.994Z,10.23
2018-02-16T09:30:47.449Z,12.40
2018-02-16T09:33:14.922Z,8.97
2018-02-16T09:35:43.555Z,8.10
2018-02-16T09:38:10.988Z,7.50
2018-02-16T09:40:38.450Z,7.47
2018-02-16T09:43:05.907Z,10.70
2018-02-16T09:45:33.335Z,8.10
2018-02-16T09:48:00.779Z,14.50
2018-02-16T09:50:28.222Z,8.40
2018-02-16T09:52:55.665Z,7.73
2018-02-16T09:55:23.103Z,11.73
2018-02-16T09:57:50.540Z,11.20
2018-02-16T10:00:18.759Z,12.10
2018-02-16T10:02:46.191Z,12.87
2018-02-16T10:05:13.623Z,10.43
2018-02-16T10:07:41.087Z,11.50
2018-02-16T10:10:08.522Z,11.43
2018-02-16T10:12:35.967Z,11.27
2018-02-16T10:15:03.449Z,10.80
2018-02-16T10:17:30.879Z,10.93
2018-02-16T10:19:58.362Z,12.77
2018-02-16T10:22:25.812Z,16.43
2018-02-16T10:24:53.332Z,13.67
2018-02-16T10:27:20.807Z,11.23
2018-02-16T10:29:48.248Z,11.63
2018-02-16T10:32:15.701Z,11.03
2018-02-16T10:34:43.139Z,10.50
2018-02-16T10:37:10.587Z,14.20
2018-02-16T10:39:38.078Z,11.00
2018-02-16T10:42:05.536Z,11.73
2018-02-16T10:44:32.987Z,10.23
2018-02-16T10:47:00.433Z,10.90
2018-02-16T10:49:27.903Z,10.80
2018-02-16T10:51:55.359Z,10.60
2018-02-16T10:54:22.837Z,10.40
2018-02-16T10:56:50.290Z,10.50
2018-02-16T10:59:17.761Z,11.17
2018-02-16T11:01:45.268Z,12.40
2018-02-16T11:04:18.386Z,14.43
2018-02-16T11:06:48.626Z,9.87
2018-02-16T11:09:20.952Z,11.63
2018-02-16T11:11:49.164Z,13.43
2018-02-16T11:14:16.599Z,13.63
2018-02-16T11:16:44.071Z,13.07
2018-02-16T11:19:11.507Z,14.17
2018-02-16T11:21:39.489Z,10.97
2018-02-16T11:24:06.894Z,9.57
2018-02-16T11:26:35.138Z,11.70
2018-02-16T11:29:02.579Z,12.50
2018-02-16T11:31:30.029Z,11.20
2018-02-16T11:33:57.500Z,8.83
2018-02-16T11:36:24.952Z,9.80
2018-02-16T11:38:52.405Z,11.40
2018-02-16T11:41:19.860Z,9.77
2018-02-16T11:43:47.304Z,10.40
2018-02-16T11:46:14.754Z,12.37
2018-02-16T11:48:42.192Z,12.00
2018-02-16T11:51:09.652Z,10.80
2018-02-16T11:53:38.015Z,9.70
2018-02-16T11:56:05.490Z,11.73
2018-02-16T11:58:33.688Z,16.30
2018-02-16T12:01:01.262Z,11.67
2018-02-16T12:03:28.691Z,9.90
2018-02-16T12:05:56.139Z,9.67
2018-02-16T12:08:24.356Z,10.40
2018-02-16T12:10:51.801Z,9.97
2018-02-16T12:13:19.265Z,8.20
2018-02-16T12:15:47.003Z,8.33
2018-02-16T12:18:14.431Z,8.20
2018-02-16T12:20:41.887Z,8.50
2018-02-16T12:23:09.317Z,7.53
2018-02-16T12:25:36.757Z,8.07
2018-02-16T12:28:04.195Z,8.47
2018-02-16T12:30:31.631Z,6.73
2018-02-16T12:32:59.140Z,7.33
2018-02-16T12:35:26.601Z,10.80
2018-02-16T12:37:54.091Z,7.57
2018-02-16T12:40:22.310Z,7.63
2018-02-16T12:42:49.748Z,8.43
2018-02-16T12:45:17.229Z,8.40
2018-02-16T12:47:44.654Z,12.40
2018-02-16T12:50:12.117Z,7.67
2018-02-16T12:52:39.543Z,7.67
2018-02-16T12:55:07.008Z,8.10
2018-02-16T12:57:34.448Z,7.33
2018-02-16T13:00:01.901Z,10.37
2018-02-16T13:02:29.335Z,8.30
2018-02-16T13:04:56.767Z,7.10
2018-02-16T13:07:24.211Z,6.70
2018-02-16T13:09:51.638Z,8.83
2018-02-16T13:12:19.071Z,7.10
2018-02-16T13:14:46.774Z,6.90
2018-02-16T13:17:15.021Z,7.47
2018-02-16T13:19:42.450Z,6.40
2018-02-16T13:22:09.906Z,8.43
2018-02-16T13:24:37.346Z,7.60
2018-02-16T13:27:04.829Z,6.90
2018-02-16T13:29:32.286Z,8.07
2018-02-16T13:31:59.712Z,7.23
2018-02-16T13:34:27.171Z,7.87
2018-02-16T13:36:54.635Z,6.03
2018-02-16T13:39:22.057Z,7.90
2018-02-16T13:41:50.461Z,7.00
2018-02-16T13:44:17.902Z,7.93
2018-02-16T13:46:45.399Z,7.30
2018-02-16T13:49:12.851Z,7.10
2018-02-16T13:51:40.288Z,7.63
2018-02-16T13:54:07.734Z,6.70
2018-02-16T13:56:35.944Z,6.90
2018-02-16T13:59:03.389Z,7.70
2018-02-16T14:01:30.840Z,7.00
2018-02-16T14:03:58.521Z,7.60
2018-02-16T14:06:25.982Z,6.93
2018-02-16T14:08:53.421Z,7.47
2018-02-16T14:11:20.874Z,8.00
2018-02-16T14:13:48.327Z,7.10
2018-02-16T14:16:15.784Z,7.50
2018-02-16T14:18:43.212Z,7.73
2018-02-16T14:21:10.701Z,8.37
2018-02-16T14:23:38.920Z,10.63
2018-02-16T14:26:06.535Z,10.30
2018-02-16T14:28:33.989Z,11.00
2018-02-16T14:31:01.456Z,10.80
2018-02-16T14:33:28.898Z,13.87
2018-02-16T14:35:56.344Z,14.97
2018-02-16T14:38:23.850Z,15.47
2018-02-16T14:40:51.376Z,17.80
2018-02-16T14:43:19.573Z,16.67
2018-02-16T14:45:47.041Z,15.43
2018-02-16T14:48:14.571Z,12.93
2018-02-16T14:50:42.017Z,16.10
2018-02-16T14:53:10.229Z,12.80
2018-02-16T14:55:37.701Z,16.10
2018-02-16T14:58:05.148Z,11.87
2018-02-16T15:00:32.595Z,10.03
2018-02-16T15:03:00.053Z,9.90
2018-02-16T15:05:27.481Z,12.23
2018-02-16T15:07:54.930Z,10.20
2018-02-16T15:10:23.152Z,11.07
2018-02-16T15:12:50.575Z,12.13
2018-02-16T15:15:18.057Z,16.13
2018-02-16T15:17:45.524Z,17.90
2018-02-16T15:20:12.935Z,16.70
2018-02-16T15:22:40.397Z,16.83
2018-02-16T15:25:08.611Z,16.50
2018-02-16T15:27:36.093Z,14.97
2018-02-16T15:30:03.557Z,18.43
2018-02-16T15:32:30.980Z,16.13
2018-02-16T15:34:58.456Z,15.07
2018-02-16T15:37:25.908Z,17.37
2018-02-16T15:39:53.365Z,16.63
2018-02-16T15:42:20.817Z,23.17
2018-02-16T15:44:48.268Z,20.33
2018-02-16T15:47:15.714Z,24.10
2018-02-16T15:49:43.179Z,17.43
2018-02-16T15:52:10.630Z,19.20
2018-02-16T15:54:38.127Z,27.13
2018-02-16T15:57:05.572Z,19.40
2018-02-16T15:59:33.024Z,20.73
2018-02-16T16:02:00.495Z,19.20
2018-02-16T16:04:27.930Z,18.67
2018-02-16T16:06:55.377Z,19.83
2018-02-16T16:09:22.808Z,19.70
2018-02-16T16:11:50.292Z,16.27
2018-02-16T16:14:17.718Z,16.73
2018-02-16T16:16:45.212Z,19.03
2018-02-16T16:19:13.421Z,19.67
2018-02-16T16:21:40.894Z,18.20
2018-02-16T16:24:08.327Z,19.50
2018-02-16T16:26:35.763Z,18.90
2018-02-16T16:29:03.238Z,15.00
2018-02-16T16:31:30.675Z,19.47
2018-02-16T16:33:58.145Z,16.70
2018-02-16T16:36:25.578Z,19.17
2018-02-16T16:38:53.219Z,20.20
2018-02-16T16:41:20.671Z,20.20
2018-02-16T16:43:48.238Z,19.40
2018-02-16T16:46:15.712Z,17.70
2018-02-16T16:48:43.171Z,19.43
2018-02-16T16:51:10.612Z,17.50
2018-02-16T16:53:38.085Z,17.90
2018-02-16T16:56:05.547Z,15.50
2018-02-16T16:58:33.052Z,20.83
2018-02-16T17:01:01.176Z,15.90
2018-02-16T17:03:28.633Z,17.50
2018-02-16T17:05:56.092Z,18.37
2018-02-16T17:08:23.556Z,18.07
2018-02-16T17:10:51.029Z,18.83
2018-02-16T17:13:18.480Z,20.90
2018-02-16T17:15:45.946Z,19.80
2018-02-16T17:18:13.403Z,19.50
2018-02-16T17:20:40.871Z,20.70
2018-02-16T17:23:08.307Z,20.77
2018-02-16T17:25:35.788Z,19.83
2018-02-16T17:28:03.236Z,21.87
2018-02-16T17:30:30.703Z,21.43
2018-02-16T17:32:58.168Z,19.30
2018-02-16T17:35:25.621Z,20.20
2018-02-16T17:37:53.075Z,18.90
2018-02-16T17:40:20.532Z,20.23
2018-02-16T17:42:48.024Z,17.37
2018-02-16T17:45:15.483Z,19.47
2018-02-16T17:47:43.164Z,18.87
2018-02-16T17:50:10.603Z,22.83
2018-02-16T17:52:38.060Z,20.53
2018-02-16T17:55:05.493Z,23.50
2018-02-16T17:57:33.729Z,22.30
2018-02-16T18:00:01.212Z,22.53
2018-02-16T18:02:28.655Z,20.23
2018-02-16T18:04:56.111Z,23.47
2018-02-16T18:07:23.616Z,21.07
2018-02-16T18:09:51.057Z,21.47
2018-02-16T18:12:19.281Z,20.90
2018-02-16T18:14:46.743Z,21.33
2018-02-16T18:17:14.164Z,25.60
2018-02-16T18:19:41.628Z,21.47
2018-02-16T18:22:09.100Z,22.07
2018-02-16T18:24:36.558Z,27.03
2018-02-16T18:27:04.077Z,24.77
2018-02-16T18:29:31.543Z,22.30
2018-02-16T18:31:58.959Z,24.17
2018-02-16T18:34:26.424Z,22.87
2018-02-16T18:36:53.879Z,25.90
2018-02-16T18:39:21.327Z,23.27
2018-02-16T18:41:48.811Z,24.60
2018-02-16T18:44:16.295Z,25.43
2018-02-16T18:46:43.737Z,28.00
2018-02-16T18:49:12.144Z,25.00
2018-02-16T18:51:39.821Z,25.77
2018-02-16T18:54:07.282Z,24.90
2018-02-16T18:56:34.750Z,27.00
2018-02-16T18:59:02.197Z,23.43
2018-02-16T19:01:29.653Z,24.20
2018-02-16T19:03:57.726Z,24.23
2018-02-16T19:06:25.189Z,24.80
2018-02-16T19:08:52.669Z,24.50
2018-02-16T19:11:20.203Z,26.63
2018-02-16T19:13:47.710Z,27.27
2018-02-16T19:16:15.156Z,22.80
2018-02-16T19:18:42.611Z,26.00
2018-02-16T19:21:10.053Z,24.83
2018-02-16T19:23:37.525Z,24.43
2018-02-16T19:26:04.981Z,29.40
2018-02-16T19:28:32.425Z,28.23
2018-02-16T19:30:59.900Z,28.17
2018-02-16T19:33:28.808Z,26.20
2018-02-16T19:35:56.264Z,24.60
2018-02-16T19:38:23.725Z,26.30
2018-02-16T19:40:51.165Z,26.97
2018-02-16T19:43:18.674Z,25.10
2018-02-16T19:45:46.111Z,27.47
2018-02-16T19:48:13.583Z,26.13
2018-02-16T19:50:41.000Z,27.93
2018-02-16T19:53:08.447Z,27.37
2018-02-16T19:55:35.962Z,26.40
2018-02-16T19:58:03.424Z,29.90
2018-02-16T20:00:30.891Z,28.23
2018-02-16T20:02:58.351Z,28.00
2018-02-16T20:05:25.819Z,23.83
2018-02-16T20:07:53.282Z,29.50
2018-02-16T20:10:20.720Z,27.60
2018-02-16T20:12:48.179Z,26.60
2018-02-16T20:15:15.638Z,30.27
2018-02-16T20:17:49.444Z,30.83
2018-02-16T20:20:16.896Z,26.70
2018-02-16T20:22:44.354Z,26.00
2018-02-16T20:25:11.811Z,28.27
2018-02-16T20:27:39.301Z,26.33
2018-02-16T20:30:06.738Z,28.20
2018-02-16T20:32:34.201Z,29.37
2018-02-16T20:35:01.653Z,28.40
2018-02-16T20:37:29.111Z,30.77
2018-02-16T20:39:56.544Z,30.87
2018-02-16T20:42:24.005Z,26.07
2018-02-16T20:44:51.457Z,27.20
2018-02-16T20:47:18.943Z,28.80
2018-02-16T20:49:46.384Z,25.63
2018-02-16T20:52:13.842Z,26.23
2018-02-16T20:54:41.290Z,28.37
2018-02-16T20:57:09.619Z,26.60
2018-02-16T20:59:37.860Z,26.93
2018-02-16T21:02:05.341Z,27.03
2018-02-16T21:04:33.722Z,24.00
2018-02-16T21:07:01.175Z,26.47
2018-02-16T21:09:28.645Z,25.57
2018-02-16T21:11:56.068Z,26.33
2018-02-16T21:14:24.277Z,27.27
2018-02-16T21:16:51.721Z,25.63
2018-02-16T21:19:19.156Z,29.27
2018-02-16T21:21:46.605Z,24.77
2018-02-16T21:24:14.068Z,27.83
2018-02-16T21:26:41.552Z,28.57
2018-02-16T21:29:09.775Z,26.00
2018-02-16T21:31:37.237Z,27.10
2018-02-16T21:34:04.724Z,29.50
2018-02-16T21:36:32.171Z,29.87
2018-02-16T21:38:59.613Z,28.13
2018-02-16T21:41:27.059Z,29.97
2018-02-16T21:43:54.519Z,29.27
2018-02-16T21:46:21.974Z,27.90
2018-02-16T21:48:49.435Z,33.80
2018-02-16T21:51:16.905Z,27.30
2018-02-16T21:53:44.409Z,25.77
2018-02-16T21:56:11.806Z,28.57
2018-02-16T21:58:39.276Z,31.43
2018-02-16T22:01:06.756Z,31.37
2018-02-16T22:03:34.252Z,28.13
2018-02-16T22:06:01.940Z,28.23
2018-02-16T22:08:29.408Z,30.67
2018-02-16T22:10:56.901Z,31.13
2018-02-16T22:13:24.351Z,32.80
2018-02-16T22:15:51.807Z,38.47
2018-02-16T22:18:19.260Z,34.50
2018-02-16T22:20:46.703Z,29.30
2018-02-16T22:23:14.140Z,31.23
2018-02-16T22:25:41.597Z,29.80
2018-02-16T22:28:09.043Z,30.37
2018-02-16T22:30:36.521Z,30.53
2018-02-16T22:33:03.993Z,31.77
2018-02-16T22:35:31.455Z,31.27
2018-02-16T22:37:58.909Z,31.40
2018-02-16T22:40:26.390Z,32.67
2018-02-16T22:42:53.831Z,32.30
2018-02-16T22:45:21.288Z,37.40
2018-02-16T22:47:48.753Z,32.77
2018-02-16T22:50:16.195Z,37.17
2018-02-16T22:52:43.635Z,42.70
2018-02-16T22:55:11.847Z,37.90
2018-02-16T22:57:39.304Z,38.13
2018-02-16T23:00:06.767Z,44.77
2018-02-16T23:02:34.203Z,44.00
2018-02-16T23:05:01.657Z,37.87
2018-02-16T23:07:29.112Z,34.53
2018-02-16T23:09:56.658Z,31.07
2018-02-16T23:12:24.193Z,41.03
2018-02-16T23:14:51.645Z,37.33
2018-02-16T23:17:19.101Z,36.93
2018-02-16T23:19:46.548Z,39.10
2018-02-16T23:22:13.995Z,36.43
2018-02-16T23:24:41.453Z,40.40
2018-02-16T23:27:09.665Z,41.83
2018-02-16T23:29:37.125Z,46.80
2018-02-16T23:32:04.568Z,42.37
2018-02-16T23:34:32.232Z,41.23
2018-02-16T23:36:59.685Z,46.80
2018-02-16T23:39:27.137Z,41.13
2018-02-16T23:41:54.578Z,41.00
2018-02-16T23:44:22.723Z,32.27
2018-02-16T23:46:50.206Z,35.70
2018-02-16T23:49:17.651Z,23.67
2018-02-16T23:51:45.108Z,29.87
2018-02-16T23:54:12.566Z,26.53
2018-02-16T23:56:40.241Z,26.70
2018-02-16T23:59:07.688Z,28.70
